Shults, OK

10:17 AM CST on February 12, 2016 (GMT -0600)
Stone Haven | | Change Station
CLOSE
Current Station
Personal Weather Station
Location: Idabel, OK
Elevation: 489 ft
Nearby Weather Stations

Elev 489 ft 33.87 °N, 94.83 °W | Updated 8 seconds ago

Clear
Clear
54.0 °F
Feels Like 54.0 °F
N
0.0
Wind Variable Wind from NE
Gusts 4.0 mph

Today
High -- | Low -- °F
--% Chance of Precip.
Yesterday
High -- | Low -- °F
Precip. -- in
Pressure 30.28 in
Visibility 10.0 miles
Clouds Clear
Dew Point 34 °F
Humidity 47%
Rainfall 0.00 in
Snow Depth Not available.
7:06 AM 5:59 PM
Waxing Crescent, 21% visible
METAR K4O4 121555Z AUTO 00000KT 10SM CLR 11/M02 A3028 RMK AO2
Pressure 30.28 in
Visibility 10.0 miles
Clouds Clear
Dew Point 34 °F
Humidity 47%
Rainfall 0.00 in
Snow Depth Not available.
7:06 AM 5:59 PM
Waxing Crescent, 21% visible
METAR K4O4 121555Z AUTO 00000KT 10SM CLR 11/M02 A3028 RMK AO2

10-Day Weather Forecast

Almanac

Astronomy

Feb. 12, 2016 Rise Set
Actual Time
Civil Twilight
Nautical Twilight
Astronomical Twilight
Moon
Length of Visible Light
Length of Day
Tomorrow will be .
, % of the Moon is Illuminated

Today's Extremes

State Highs State Lows

Community

WunderPhotos

Upload Photos

1,892,345 photos uploaded!

WunderBlog® & News

Nearby

Air Quality

  Air Quality AQ Index Pollutant
Not available.

Snow Depth

Station Depth Elevation

Earthquake Activity

City Distance Mag. Time & Date
Minimum magnitude displayed is 2.5.

Coastal Water Temperatures

Place Temperature

Stations

Nearby Weather Stations

Station Location Temp. Windchill Dew Point Humidity Wind Precip. Elev Updated Type
                   

Watches & Warnings

There are currently no watches in effect.